createdAt,value
2018-08-11T00:00:05.365Z,17.00
2018-08-11T00:02:33.716Z,17.00
2018-08-11T00:05:02.035Z,17.00
2018-08-11T00:07:30.350Z,17.10
2018-08-11T00:09:58.643Z,17.40
2018-08-11T00:12:26.956Z,17.50
2018-08-11T00:14:55.259Z,17.80
2018-08-11T00:17:23.566Z,18.00
2018-08-11T00:19:51.871Z,17.80
2018-08-11T00:22:20.200Z,17.80
2018-08-11T00:24:48.501Z,17.70
2018-08-11T00:27:16.816Z,17.50
2018-08-11T00:29:45.120Z,17.20
2018-08-11T00:32:13.456Z,16.80
2018-08-11T00:34:41.771Z,16.60
2018-08-11T00:37:10.095Z,16.70
2018-08-11T00:39:38.406Z,16.80
2018-08-11T00:42:06.720Z,16.80
2018-08-11T00:44:35.044Z,16.90
2018-08-11T00:47:03.347Z,16.90
2018-08-11T00:49:31.739Z,17.00
2018-08-11T00:52:06.792Z,16.90
2018-08-11T00:54:35.104Z,16.80
2018-08-11T00:57:03.701Z,16.80
2018-08-11T00:59:32.211Z,16.90
2018-08-11T01:02:00.504Z,17.20
2018-08-11T01:04:28.831Z,17.10
2018-08-11T01:06:57.128Z,16.70
2018-08-11T01:09:25.440Z,16.40
2018-08-11T01:11:53.748Z,16.40
2018-08-11T01:14:22.076Z,16.60
2018-08-11T01:16:50.376Z,16.90
2018-08-11T01:19:18.693Z,17.20
2018-08-11T01:21:47.019Z,17.40
2018-08-11T01:24:15.336Z,17.60
2018-08-11T01:26:43.635Z,17.50
2018-08-11T01:29:11.952Z,17.10
2018-08-11T01:31:40.259Z,16.70
2018-08-11T01:34:08.592Z,16.60
2018-08-11T01:36:36.904Z,16.30
2018-08-11T01:39:06.680Z,16.00
2018-08-11T01:41:34.983Z,15.70
2018-08-11T01:44:03.621Z,15.50
2018-08-11T01:46:32.040Z,15.70
2018-08-11T01:49:00.764Z,15.90
2018-08-11T01:51:29.088Z,15.90
2018-08-11T01:53:57.499Z,16.00
2018-08-11T01:56:26.024Z,16.10
2018-08-11T01:58:54.336Z,16.20
2018-08-11T02:01:22.641Z,16.40
2018-08-11T02:03:50.960Z,16.50
2018-08-11T02:06:19.260Z,16.20
2018-08-11T02:08:47.576Z,16.00
2018-08-11T02:11:15.910Z,16.30
2018-08-11T02:13:44.232Z,16.80
2018-08-11T02:16:12.544Z,17.20
2018-08-11T02:18:40.847Z,17.60
2018-08-11T02:21:09.161Z,17.70
2018-08-11T02:23:37.475Z,17.50
2018-08-11T02:26:05.795Z,17.50
2018-08-11T02:28:34.115Z,17.40
2018-08-11T02:31:02.412Z,17.30
2018-08-11T02:33:30.720Z,17.00
2018-08-11T02:35:59.013Z,16.70
2018-08-11T02:38:27.336Z,16.40
2018-08-11T02:40:55.652Z,16.10
2018-08-11T02:43:24.019Z,15.80
2018-08-11T02:45:52.296Z,15.80
2018-08-11T02:48:20.627Z,15.60
2018-08-11T02:50:48.924Z,15.50
2018-08-11T02:53:17.248Z,15.40
2018-08-11T02:55:45.667Z,15.30
2018-08-11T02:58:14.008Z,15.30
2018-08-11T03:00:42.309Z,15.10
2018-08-11T03:03:10.606Z,15.20
2018-08-11T03:05:38.931Z,15.20
2018-08-11T03:08:07.236Z,15.00
2018-08-11T03:10:35.553Z,15.00
2018-08-11T03:13:04.170Z,15.30
2018-08-11T03:15:32.490Z,15.30
2018-08-11T03:18:00.795Z,15.20
2018-08-11T03:20:29.102Z,15.40
2018-08-11T03:22:57.399Z,15.40
2018-08-11T03:25:25.720Z,15.50
2018-08-11T03:27:54.015Z,15.60
2018-08-11T03:30:22.341Z,15.80
2018-08-11T03:32:50.663Z,15.80
2018-08-11T03:35:18.980Z,15.80
2018-08-11T03:37:47.275Z,15.80
2018-08-11T03:40:15.588Z,15.80
2018-08-11T03:42:43.895Z,15.90
2018-08-11T03:45:12.303Z,16.00
2018-08-11T03:47:40.600Z,16.00
2018-08-11T03:50:08.908Z,16.00
2018-08-11T03:52:37.495Z,15.80
2018-08-11T03:55:05.858Z,15.70
2018-08-11T03:57:34.148Z,15.50
2018-08-11T04:00:02.516Z,15.50
2018-08-11T04:02:30.856Z,15.40
2018-08-11T04:04:59.174Z,15.50
2018-08-11T04:07:27.463Z,15.60
2018-08-11T04:09:55.780Z,15.50
2018-08-11T04:12:24.080Z,15.60
2018-08-11T04:14:52.391Z,15.70
2018-08-11T04:17:24.924Z,15.90
2018-08-11T04:19:53.235Z,16.00
2018-08-11T04:22:21.527Z,16.20
2018-08-11T04:24:49.843Z,16.40
2018-08-11T04:27:18.140Z,16.70
2018-08-11T04:29:46.457Z,17.00
2018-08-11T04:32:14.760Z,17.40
2018-08-11T04:34:43.081Z,17.40
2018-08-11T04:37:11.380Z,17.20
2018-08-11T04:39:39.696Z,16.80
2018-08-11T04:42:08.061Z,16.60
2018-08-11T04:44:36.344Z,16.60
2018-08-11T04:47:04.656Z,16.70
2018-08-11T04:49:32.989Z,16.80
2018-08-11T04:52:01.280Z,16.70
2018-08-11T04:54:29.607Z,16.70
2018-08-11T04:56:57.929Z,16.70
2018-08-11T04:59:26.279Z,16.70
2018-08-11T05:01:54.575Z,16.70
2018-08-11T05:04:22.885Z,16.70
2018-08-11T05:06:51.181Z,16.80
2018-08-11T05:09:19.495Z,17.00
2018-08-11T05:11:47.807Z,17.30
2018-08-11T05:14:16.171Z,17.60
2018-08-11T05:16:44.467Z,17.70
2018-08-11T05:19:12.792Z,17.70
2018-08-11T05:21:41.112Z,17.70
2018-08-11T05:24:09.411Z,17.70
2018-08-11T05:26:37.742Z,17.40
2018-08-11T05:29:06.035Z,17.40
2018-08-11T05:31:34.395Z,17.30
2018-08-11T05:34:02.704Z,17.30
2018-08-11T05:36:31.020Z,17.20
2018-08-11T05:38:59.328Z,17.20
2018-08-11T05:41:27.634Z,17.20
2018-08-11T05:43:55.935Z,17.30
2018-08-11T05:46:24.247Z,17.60
2018-08-11T05:48:52.536Z,17.80
2018-08-11T05:51:20.843Z,18.00
2018-08-11T05:53:49.141Z,17.90
2018-08-11T05:56:17.492Z,18.00
2018-08-11T05:58:45.784Z,18.10
2018-08-11T06:01:14.100Z,18.40
2018-08-11T06:03:42.388Z,18.40
2018-08-11T06:06:10.696Z,18.50
2018-08-11T06:08:39.004Z,18.50
2018-08-11T06:11:07.311Z,18.80
2018-08-11T06:13:35.604Z,18.90
2018-08-11T06:16:03.942Z,19.20
2018-08-11T06:18:32.244Z,19.40
2018-08-11T06:21:00.582Z,19.50
2018-08-11T06:23:28.892Z,19.70
2018-08-11T06:25:57.199Z,19.70
2018-08-11T06:28:25.512Z,19.60
2018-08-11T06:30:53.839Z,19.50
2018-08-11T06:33:22.132Z,19.50
2018-08-11T06:35:50.443Z,19.50
2018-08-11T06:38:18.744Z,19.50
2018-08-11T06:40:47.105Z,19.50
2018-08-11T06:43:15.367Z,19.50
2018-08-11T06:45:43.676Z,19.50
2018-08-11T06:48:11.976Z,19.50
2018-08-11T06:50:40.292Z,19.40
2018-08-11T06:53:08.575Z,19.40
2018-08-11T06:55:37.030Z,19.50
2018-08-11T06:58:05.276Z,19.60
2018-08-11T07:00:33.591Z,19.70
2018-08-11T07:03:01.899Z,19.80
2018-08-11T07:05:30.207Z,19.90
2018-08-11T07:07:58.513Z,19.80
2018-08-11T07:10:26.820Z,19.80
2018-08-11T07:12:55.112Z,19.80
2018-08-11T07:15:23.457Z,19.90
2018-08-11T07:17:51.739Z,20.00
2018-08-11T07:20:20.049Z,20.00
2018-08-11T07:22:48.339Z,19.80
2018-08-11T07:25:16.797Z,19.70
2018-08-11T07:27:45.125Z,19.80
2018-08-11T07:30:13.445Z,19.80
2018-08-11T07:32:41.764Z,19.80
2018-08-11T07:35:10.052Z,19.70
2018-08-11T07:37:38.363Z,19.80
2018-08-11T07:40:06.772Z,19.80
2018-08-11T07:42:35.110Z,19.90
2018-08-11T07:45:03.434Z,20.10
2018-08-11T07:47:31.813Z,20.30
2018-08-11T07:50:00.072Z,20.30
2018-08-11T07:52:28.384Z,20.30
2018-08-11T07:54:56.695Z,20.20
2018-08-11T07:57:25.016Z,20.20
2018-08-11T07:59:53.311Z,20.20
2018-08-11T08:02:21.620Z,20.30
2018-08-11T08:04:49.908Z,20.30
2018-08-11T08:07:18.236Z,20.50
2018-08-11T08:09:46.524Z,20.60
2018-08-11T08:12:14.833Z,20.80
2018-08-11T08:14:43.124Z,20.90
2018-08-11T08:17:11.440Z,21.00
2018-08-11T08:19:39.739Z,20.90
2018-08-11T08:22:08.176Z,20.80
2018-08-11T08:24:36.479Z,20.90
2018-08-11T08:27:04.822Z,21.00
2018-08-11T08:29:33.125Z,20.80
2018-08-11T08:32:01.441Z,20.80
2018-08-11T08:34:29.748Z,21.20
2018-08-11T08:36:58.060Z,21.50
2018-08-11T08:39:26.365Z,21.50
2018-08-11T08:41:54.714Z,21.70
2018-08-11T08:44:23.009Z,21.60
2018-08-11T08:46:51.328Z,21.60
2018-08-11T08:49:19.626Z,21.60
2018-08-11T08:51:47.944Z,21.50
2018-08-11T08:54:16.236Z,21.60
2018-08-11T08:56:44.566Z,21.70
2018-08-11T08:59:12.914Z,21.80
2018-08-11T09:01:41.211Z,22.00
2018-08-11T09:04:09.506Z,21.80
2018-08-11T09:06:37.836Z,21.80
2018-08-11T09:09:08.424Z,21.60
2018-08-11T09:11:36.764Z,21.50
2018-08-11T09:14:05.144Z,21.40
2018-08-11T09:16:33.464Z,21.30
2018-08-11T09:19:01.752Z,21.40
2018-08-11T09:21:30.124Z,21.60
2018-08-11T09:23:58.494Z,21.40
2018-08-11T09:26:26.809Z,21.50
2018-08-11T09:28:55.123Z,21.50
2018-08-11T09:31:23.463Z,21.60
2018-08-11T09:33:51.792Z,21.60
2018-08-11T09:36:20.145Z,21.70
2018-08-11T09:38:48.448Z,21.80
2018-08-11T09:41:17.415Z,21.80
2018-08-11T09:43:45.737Z,21.70
2018-08-11T09:46:14.045Z,21.70
2018-08-11T09:48:42.406Z,21.90
2018-08-11T09:51:10.808Z,22.20
2018-08-11T09:53:39.132Z,22.50
2018-08-11T09:56:07.443Z,22.80
2018-08-11T09:58:35.796Z,22.80
2018-08-11T10:01:09.654Z,22.80
2018-08-11T10:03:38.398Z,22.80
2018-08-11T10:06:06.836Z,23.10
2018-08-11T10:08:35.203Z,23.20
2018-08-11T10:11:03.536Z,23.30
2018-08-11T10:13:32.728Z,23.20
2018-08-11T10:16:01.544Z,23.20
2018-08-11T10:18:30.290Z,23.30
2018-08-11T10:20:58.535Z,23.30
2018-08-11T10:23:26.860Z,23.30
2018-08-11T10:25:55.167Z,23.40
2018-08-11T10:28:23.480Z,23.50
2018-08-11T10:30:51.784Z,23.60
2018-08-11T10:33:20.107Z,23.70
2018-08-11T10:35:49.111Z,23.40
2018-08-11T10:38:17.556Z,22.80
2018-08-11T10:40:45.848Z,22.40
2018-08-11T10:43:14.205Z,21.90
2018-08-11T10:45:42.500Z,21.90
2018-08-11T10:48:10.808Z,21.90
2018-08-11T10:50:39.096Z,22.00
2018-08-11T10:53:07.631Z,22.20
2018-08-11T10:55:36.657Z,22.60
2018-08-11T10:58:05.260Z,22.80
2018-08-11T11:00:33.552Z,22.70
2018-08-11T11:03:01.920Z,22.40
2018-08-11T11:05:30.223Z,22.30
2018-08-11T11:07:58.559Z,22.40
2018-08-11T11:10:26.880Z,22.50
2018-08-11T11:12:55.196Z,22.70
2018-08-11T11:15:23.497Z,22.90
2018-08-11T11:17:51.816Z,22.90
2018-08-11T11:20:20.106Z,23.20
2018-08-11T11:22:48.427Z,23.20
2018-08-11T11:25:16.721Z,23.10
2018-08-11T11:27:45.040Z,23.00
2018-08-11T11:30:13.328Z,23.10
2018-08-11T11:32:41.640Z,22.90
2018-08-11T11:35:09.955Z,23.00
2018-08-11T11:37:38.276Z,22.80
2018-08-11T11:40:07.063Z,22.60
2018-08-11T11:42:35.379Z,22.50
2018-08-11T11:45:03.708Z,22.30
2018-08-11T11:47:32.037Z,22.40
2018-08-11T11:50:00.332Z,22.50
2018-08-11T11:52:28.664Z,22.70
2018-08-11T11:54:57.051Z,23.10
2018-08-11T11:57:25.381Z,23.40
2018-08-11T11:59:53.725Z,23.30
2018-08-11T12:02:22.028Z,22.80
2018-08-11T12:04:50.349Z,22.30
2018-08-11T12:07:18.670Z,22.00
2018-08-11T12:09:46.979Z,22.00
2018-08-11T12:12:15.267Z,22.00
2018-08-11T12:14:43.597Z,21.90
2018-08-11T12:17:11.908Z,22.00
2018-08-11T12:19:40.708Z,22.00
2018-08-11T12:22:15.669Z,22.10
2018-08-11T12:24:43.992Z,22.10
2018-08-11T12:27:12.288Z,22.00
2018-08-11T12:29:40.640Z,21.90
2018-08-11T12:32:08.947Z,22.10
2018-08-11T12:34:37.324Z,22.30
2018-08-11T12:37:05.627Z,22.40
2018-08-11T12:39:33.931Z,22.50
2018-08-11T12:42:02.229Z,22.80
2018-08-11T12:44:30.563Z,22.90
2018-08-11T12:46:58.862Z,22.90
2018-08-11T12:49:27.200Z,22.90
2018-08-11T12:51:55.491Z,22.90
2018-08-11T12:54:23.803Z,23.00
2018-08-11T12:56:52.129Z,23.00
2018-08-11T12:59:20.432Z,23.00
2018-08-11T13:01:48.876Z,23.10
2018-08-11T13:04:17.188Z,23.10
2018-08-11T13:06:45.507Z,23.00
2018-08-11T13:09:13.836Z,22.90
2018-08-11T13:11:42.132Z,22.50
2018-08-11T13:14:10.464Z,22.30
2018-08-11T13:16:38.761Z,22.40
2018-08-11T13:19:07.196Z,22.30
2018-08-11T13:21:35.840Z,22.30
2018-08-11T13:24:04.168Z,22.50
2018-08-11T13:26:32.488Z,22.70
2018-08-11T13:29:00.800Z,22.90
2018-08-11T13:31:29.168Z,23.10
2018-08-11T13:33:57.480Z,23.10
2018-08-11T13:36:25.771Z,22.70
2018-08-11T13:38:54.098Z,22.70
2018-08-11T13:41:22.412Z,22.50
2018-08-11T13:43:50.967Z,22.50
2018-08-11T13:46:19.271Z,22.70
2018-08-11T13:48:47.589Z,23.10
2018-08-11T13:51:15.908Z,23.20
2018-08-11T13:53:44.229Z,23.20
2018-08-11T13:56:13.570Z,22.90
2018-08-11T13:58:41.891Z,22.80
2018-08-11T14:01:10.232Z,22.70
2018-08-11T14:03:38.524Z,22.70
2018-08-11T14:06:06.926Z,22.90
2018-08-11T14:08:35.231Z,23.10
2018-08-11T14:11:03.543Z,22.90
2018-08-11T14:13:31.851Z,22.60
2018-08-11T14:16:00.145Z,22.60
2018-08-11T14:18:28.440Z,22.90
2018-08-11T14:20:56.756Z,23.10
2018-08-11T14:23:25.052Z,22.80
2018-08-11T14:25:53.391Z,22.80
2018-08-11T14:28:21.687Z,22.90
2018-08-11T14:30:50.003Z,23.20
2018-08-11T14:33:18.311Z,23.40
2018-08-11T14:35:46.625Z,23.30
2018-08-11T14:38:14.916Z,23.10
2018-08-11T14:40:43.232Z,23.10
2018-08-11T14:43:11.545Z,23.40
2018-08-11T14:45:39.868Z,23.50
2018-08-11T14:48:08.164Z,23.40
2018-08-11T14:50:36.576Z,23.50
2018-08-11T14:53:04.821Z,23.60
2018-08-11T14:55:33.157Z,23.40
2018-08-11T14:58:01.488Z,23.10
2018-08-11T15:00:29.829Z,23.00
2018-08-11T15:02:58.182Z,23.00
2018-08-11T15:05:26.511Z,22.90
2018-08-11T15:07:54.804Z,23.20
2018-08-11T15:10:23.129Z,23.40
2018-08-11T15:12:51.436Z,23.20
2018-08-11T15:15:19.764Z,22.80
2018-08-11T15:17:48.056Z,22.70
2018-08-11T15:20:16.368Z,23.10
2018-08-11T15:22:44.663Z,23.80
2018-08-11T15:25:12.978Z,24.70
2018-08-11T15:27:41.318Z,24.60
2018-08-11T15:30:11.299Z,24.60
2018-08-11T15:32:39.617Z,24.40
2018-08-11T15:35:09.007Z,24.40
2018-08-11T15:37:37.332Z,24.10
2018-08-11T15:40:06.300Z,24.60
2018-08-11T15:42:34.875Z,24.60
2018-08-11T15:45:03.224Z,24.70
2018-08-11T15:47:32.559Z,25.10
2018-08-11T15:50:00.892Z,25.30
2018-08-11T15:52:29.212Z,25.40
2018-08-11T15:54:57.536Z,25.60
2018-08-11T15:57:25.831Z,25.60
2018-08-11T15:59:54.160Z,25.50
2018-08-11T16:02:22.471Z,25.10
2018-08-11T16:04:50.775Z,24.30
2018-08-11T16:07:19.059Z,24.70
2018-08-11T16:09:47.429Z,25.20
2018-08-11T16:12:15.723Z,25.60
2018-08-11T16:14:44.088Z,25.70
2018-08-11T16:17:12.448Z,25.40
2018-08-11T16:19:40.763Z,24.50
2018-08-11T16:22:09.059Z,23.80
2018-08-11T16:24:37.376Z,24.20
2018-08-11T16:27:05.879Z,24.70
2018-08-11T16:29:34.204Z,25.10
2018-08-11T16:32:02.499Z,25.50
2018-08-11T16:34:30.796Z,25.60
2018-08-11T16:36:59.116Z,25.80
2018-08-11T16:39:27.434Z,25.60
2018-08-11T16:41:55.782Z,25.20
2018-08-11T16:44:24.080Z,25.60
2018-08-11T16:46:52.400Z,25.40
2018-08-11T16:49:20.712Z,24.70
2018-08-11T16:51:49.027Z,23.80
2018-08-11T16:54:17.322Z,23.10
2018-08-11T16:56:45.660Z,22.90
2018-08-11T16:59:13.964Z,22.80
2018-08-11T17:01:42.281Z,22.60
2018-08-11T17:04:10.576Z,22.50
2018-08-11T17:06:38.888Z,22.40
2018-08-11T17:09:09.607Z,22.40
2018-08-11T17:11:37.949Z,22.50
2018-08-11T17:14:06.701Z,22.50
2018-08-11T17:16:35.080Z,22.60
2018-08-11T17:19:03.400Z,22.70
2018-08-11T17:21:31.718Z,22.60
2018-08-11T17:24:00.476Z,22.70
2018-08-11T17:26:28.788Z,22.70
2018-08-11T17:28:57.108Z,22.70
2018-08-11T17:31:25.547Z,22.70
2018-08-11T17:33:53.948Z,22.60
2018-08-11T17:36:22.267Z,22.40
2018-08-11T17:38:50.646Z,22.20
2018-08-11T17:41:18.955Z,22.10
2018-08-11T17:43:47.256Z,22.00
2018-08-11T17:46:15.573Z,21.90
2018-08-11T17:48:43.879Z,21.90
2018-08-11T17:51:12.188Z,21.80
2018-08-11T17:53:40.492Z,21.80
2018-08-11T17:56:08.824Z,21.80
2018-08-11T17:58:37.124Z,21.70
2018-08-11T18:01:05.431Z,21.70
2018-08-11T18:03:33.724Z,21.70
2018-08-11T18:06:02.034Z,21.60
2018-08-11T18:08:30.327Z,21.50
2018-08-11T18:10:58.644Z,21.50
2018-08-11T18:13:26.932Z,21.40
2018-08-11T18:15:55.252Z,21.40
2018-08-11T18:18:23.560Z,21.30
2018-08-11T18:20:51.880Z,21.30
2018-08-11T18:23:20.175Z,21.30
2018-08-11T18:25:48.499Z,21.20
2018-08-11T18:28:16.788Z,21.10
2018-08-11T18:30:45.108Z,21.10
2018-08-11T18:33:13.406Z,21.00
2018-08-11T18:35:41.785Z,21.00
2018-08-11T18:38:10.077Z,20.80
2018-08-11T18:40:38.400Z,20.80
2018-08-11T18:43:06.692Z,20.70
2018-08-11T18:45:34.988Z,20.70
2018-08-11T18:48:03.308Z,20.70
2018-08-11T18:50:31.612Z,20.60
2018-08-11T18:52:59.932Z,20.50
2018-08-11T18:55:28.253Z,20.50
2018-08-11T18:57:56.572Z,20.40
2018-08-11T19:00:24.888Z,20.40
2018-08-11T19:02:53.206Z,20.30
2018-08-11T19:05:21.524Z,20.20
2018-08-11T19:07:49.835Z,20.10
2018-08-11T19:10:18.144Z,20.00
2018-08-11T19:12:46.471Z,20.00
2018-08-11T19:15:14.904Z,19.90
2018-08-11T19:17:43.236Z,19.80
2018-08-11T19:20:12.705Z,19.70
2018-08-11T19:22:41.027Z,19.60
2018-08-11T19:25:10.536Z,19.60
2018-08-11T19:27:38.895Z,19.40
2018-08-11T19:30:08.532Z,19.30
2018-08-11T19:32:37.176Z,19.30
2018-08-11T19:35:05.939Z,19.20
2018-08-11T19:37:34.256Z,19.10
2018-08-11T19:40:02.548Z,19.10
2018-08-11T19:42:30.897Z,19.10
2018-08-11T19:44:59.236Z,19.10
2018-08-11T19:47:27.549Z,19.20
2018-08-11T19:49:55.968Z,19.20
2018-08-11T19:52:24.316Z,19.30
2018-08-11T19:54:52.710Z,19.30
2018-08-11T19:57:21.184Z,19.30
2018-08-11T19:59:49.494Z,19.20
2018-08-11T20:02:17.833Z,19.20
2018-08-11T20:04:46.190Z,19.00
2018-08-11T20:07:14.553Z,18.90
2018-08-11T20:09:42.840Z,18.80
2018-08-11T20:12:11.167Z,18.70
2018-08-11T20:14:39.460Z,18.60
2018-08-11T20:17:07.772Z,18.50
2018-08-11T20:19:36.067Z,18.50
2018-08-11T20:22:04.408Z,18.40
2018-08-11T20:24:32.712Z,18.40
2018-08-11T20:27:01.032Z,18.40
2018-08-11T20:29:29.345Z,18.50
2018-08-11T20:31:57.670Z,18.70
2018-08-11T20:34:25.977Z,18.80
2018-08-11T20:36:54.292Z,18.90
2018-08-11T20:39:22.591Z,18.80
2018-08-11T20:41:50.908Z,18.90
2018-08-11T20:44:19.215Z,18.90
2018-08-11T20:46:47.540Z,18.80
2018-08-11T20:49:15.844Z,18.80
2018-08-11T20:51:44.172Z,18.90
2018-08-11T20:54:12.472Z,18.80
2018-08-11T20:56:40.864Z,18.80
2018-08-11T20:59:09.189Z,18.80
2018-08-11T21:01:37.606Z,18.80
2018-08-11T21:04:06.212Z,18.80
2018-08-11T21:06:34.924Z,18.80
2018-08-11T21:09:03.375Z,18.50
2018-08-11T21:11:31.721Z,18.40
2018-08-11T21:14:00.040Z,18.20
2018-08-11T21:16:28.344Z,18.00
2018-08-11T21:18:56.656Z,17.80
2018-08-11T21:21:24.952Z,17.60
2018-08-11T21:23:53.392Z,17.50
2018-08-11T21:26:21.625Z,17.50
2018-08-11T21:28:49.941Z,17.70
2018-08-11T21:31:18.241Z,17.90
2018-08-11T21:33:46.560Z,18.00
2018-08-11T21:36:14.918Z,18.00
2018-08-11T21:38:43.234Z,18.00
2018-08-11T21:41:11.540Z,17.70
2018-08-11T21:43:39.908Z,17.50
2018-08-11T21:46:08.221Z,17.10
2018-08-11T21:48:36.545Z,16.80
2018-08-11T21:51:04.871Z,16.70
2018-08-11T21:53:34.744Z,16.40
2018-08-11T21:56:03.083Z,16.40
2018-08-11T21:58:31.395Z,16.40
2018-08-11T22:01:10.052Z,16.30
2018-08-11T22:03:39.069Z,16.10
2018-08-11T22:06:07.447Z,16.00
2018-08-11T22:08:35.784Z,15.80
2018-08-11T22:11:04.113Z,16.10
2018-08-11T22:13:32.461Z,16.40
2018-08-11T22:16:01.652Z,16.80
2018-08-11T22:18:29.977Z,16.90
2018-08-11T22:20:58.296Z,16.90
2018-08-11T22:23:26.623Z,16.80
2018-08-11T22:25:54.960Z,16.30
2018-08-11T22:28:23.331Z,16.00
2018-08-11T22:30:51.644Z,15.80
2018-08-11T22:33:20.001Z,15.60
2018-08-11T22:35:48.329Z,15.70
2018-08-11T22:38:16.669Z,15.80
2018-08-11T22:40:44.972Z,16.20
2018-08-11T22:43:13.287Z,16.50
2018-08-11T22:45:41.592Z,16.70
2018-08-11T22:48:09.909Z,16.90
2018-08-11T22:50:38.225Z,17.00
2018-08-11T22:53:06.575Z,17.00
2018-08-11T22:55:34.908Z,16.50
2018-08-11T22:58:03.256Z,16.00
2018-08-11T23:00:31.567Z,15.60
2018-08-11T23:02:59.900Z,15.30
2018-08-11T23:05:28.204Z,15.00
2018-08-11T23:07:56.533Z,14.80
2018-08-11T23:10:24.831Z,14.90
2018-08-11T23:12:53.160Z,15.30
2018-08-11T23:15:21.471Z,15.80
2018-08-11T23:17:50.635Z,16.30
2018-08-11T23:20:18.945Z,16.20
2018-08-11T23:22:47.284Z,15.90
2018-08-11T23:25:16.199Z,15.50
2018-08-11T23:27:44.594Z,15.20
2018-08-11T23:30:14.852Z,14.90
2018-08-11T23:32:43.727Z,14.60
2018-08-11T23:35:12.443Z,14.40
2018-08-11T23:37:41.336Z,14.40
2018-08-11T23:40:10.559Z,14.40
2018-08-11T23:42:38.964Z,14.30
2018-08-11T23:45:11.257Z,14.30
2018-08-11T23:47:40.121Z,14.70
2018-08-11T23:50:09.096Z,14.80
2018-08-11T23:52:37.408Z,14.60
2018-08-11T23:55:06.471Z,14.50
2018-08-11T23:57:35.124Z,14.30
